Time;durP1;ratioP1;P1;durP2;ratioP2;P2;SDS_P1;SDS_P2;PMS_P1;PMS_P2;Temp;Humidity;BMP_temperature;BMP_pressure;BME280_temperature;BME280_humidity;BME280_pressure;Samples;Min_cycle;Max_cycle;Signal;HPM_P1;HPM_P2
2022/10/19 00:00:45;;;;;;;3.10;1.93;;;18.70;68.10;;;;;;5113051;27;20438;-88
2022/10/19 00:03:12;;;;;;;2.40;2.20;;;19.00;67.90;;;;;;5115849;27;20489;-87
2022/10/19 00:05:39;;;;;;;5.73;2.13;;;19.00;67.30;;;;;;5081321;27;20533;-88
2022/10/19 00:08:06;;;;;;;2.30;2.10;;;19.00;66.70;;;;;;5078632;27;20557;-88
2022/10/19 00:10:33;;;;;;;2.40;2.20;;;19.10;66.70;;;;;;5113523;27;20438;-88
2022/10/19 00:13:00;;;;;;;3.03;1.90;;;19.00;66.80;;;;;;5112734;27;20493;-87
2022/10/19 00:15:29;;;;;;;2.60;2.17;;;18.90;67.40;;;;;;5112526;27;20445;-86
2022/10/19 00:17:56;;;;;;;5.67;2.70;;;18.80;67.30;;;;;;5093577;27;20450;-89
2022/10/19 00:20:23;;;;;;;20.27;3.20;;;18.70;67.70;;;;;;5093718;27;20549;-86
2022/10/19 00:22:50;;;;;;;3.47;2.83;;;18.70;67.20;;;;;;5114545;27;20470;-87
2022/10/19 00:25:17;;;;;;;2.57;2.10;;;18.70;68.10;;;;;;5096713;27;20546;-87
2022/10/19 00:27:44;;;;;;;2.63;2.40;;;18.60;68.00;;;;;;5112553;27;20534;-88
2022/10/19 00:30:12;;;;;;;6.20;2.90;;;18.50;68.20;;;;;;5096849;27;20515;-87
2022/10/19 00:32:40;;;;;;;6.37;3.37;;;18.70;68.00;;;;;;5093714;27;20482;-89
2022/10/19 00:35:08;;;;;;;10.20;3.50;;;19.00;67.80;;;;;;5112723;27;20481;-87
2022/10/19 00:37:35;;;;;;;7.23;3.83;;;18.90;67.70;;;;;;5116093;27;21004;-87
2022/10/19 00:40:02;;;;;;;7.43;3.80;;;19.10;67.60;;;;;;5103481;27;20453;-87
2022/10/19 00:42:29;;;;;;;12.80;3.73;;;19.20;67.10;;;;;;5112959;27;20465;-86
2022/10/19 00:45:11;;;;;;;48.20;5.60;;;19.30;66.90;;;;;;5112040;27;21334;-87
2022/10/19 00:47:40;;;;;;;34.00;5.07;;;19.30;66.50;;;;;;5112439;27;20445;-87
2022/10/19 00:50:08;;;;;;;12.90;3.43;;;19.20;66.50;;;;;;5098144;27;20779;-88
2022/10/19 00:52:35;;;;;;;31.43;5.23;;;19.20;66.70;;;;;;5110440;27;20725;-87
2022/10/19 00:55:03;;;;;;;26.13;4.70;;;19.20;66.70;;;;;;5099098;27;20512;-88
2022/10/19 00:57:32;;;;;;;14.80;3.77;;;19.00;67.20;;;;;;5113029;27;20668;-85
2022/10/19 01:00:01;;;;;;;30.87;4.73;;;19.10;67.70;;;;;;5111831;27;20450;-87
2022/10/19 01:02:28;;;;;;;69.87;7.97;;;19.20;67.60;;;;;;5114044;27;20485;-87
2022/10/19 01:04:56;;;;;;;23.90;4.43;;;19.00;67.40;;;;;;5095102;27;20915;-87
2022/10/19 01:07:25;;;;;;;9.17;4.67;;;19.00;67.70;;;;;;5097801;27;21344;-85
2022/10/19 01:09:52;;;;;;;11.97;4.27;;;19.10;67.80;;;;;;5110906;27;20508;-88
2022/10/19 01:12:36;;;;;;;24.87;4.40;;;19.00;67.50;;;;;;5093511;27;20795;-87
2022/10/19 01:15:14;;;;;;;15.23;4.57;;;18.90;67.50;;;;;;5093942;27;20439;-87
2022/10/19 01:17:50;;;;;;;17.73;4.50;;;18.90;67.90;;;;;;5111909;27;20444;-87
2022/10/19 01:21:09;;;;;;;27.57;5.60;;;19.00;67.70;;;;;;5099667;27;20817;-87
2022/10/19 01:24:17;;;;;;;36.63;5.53;;;19.00;67.80;;;;;;5093474;27;20446;-87
2022/10/19 01:27:26;;;;;;;9.70;4.27;;;19.00;67.90;;;;;;5111265;27;20546;-87
2022/10/19 01:30:08;;;;;;;24.30;5.27;;;19.00;67.60;;;;;;5114284;27;20445;-86
2022/10/19 01:32:50;;;;;;;45.97;4.93;;;19.10;67.50;;;;;;5112295;27;20469;-88
2022/10/19 01:35:26;;;;;;;18.40;4.10;;;18.90;67.10;;;;;;5109573;27;20460;-87
2022/10/19 01:38:02;;;;;;;14.53;3.43;;;18.80;67.40;;;;;;5093905;27;22759;-87
2022/10/19 01:40:34;;;;;;;18.30;3.60;;;18.80;67.00;;;;;;5111793;27;20449;-87
2022/10/19 01:43:06;;;;;;;6.50;2.80;;;18.50;68.10;;;;;;5092645;28;20474;-86
2022/10/19 01:45:40;;;;;;;9.80;3.07;;;18.70;68.20;;;;;;5111957;27;21045;-88
2022/10/19 01:48:12;;;;;;;28.87;2.73;;;18.60;68.20;;;;;;5113448;27;20965;-87
2022/10/19 01:50:45;;;;;;;5.40;3.70;;;18.70;67.50;;;;;;5092728;27;20942;-87
2022/10/19 01:53:14;;;;;;;5.90;3.47;;;18.70;67.80;;;;;;5112383;27;20479;-87
2022/10/19 01:55:44;;;;;;;4.00;2.30;;;18.80;67.30;;;;;;5111654;27;20454;-87
2022/10/19 01:58:17;;;;;;;4.93;2.47;;;18.60;67.00;;;;;;5086096;27;20599;-87
2022/10/19 02:00:48;;;;;;;4.60;2.23;;;18.70;67.00;;;;;;5111131;27;20490;-88
2022/10/19 02:03:17;;;;;;;4.23;2.27;;;18.50;66.60;;;;;;5102271;27;20458;-87
2022/10/19 02:05:47;;;;;;;3.90;2.10;;;18.30;66.70;;;;;;5108721;27;20439;-87
2022/10/19 02:08:20;;;;;;;4.83;3.07;;;18.40;67.10;;;;;;5113527;27;20445;-86
2022/10/19 02:10:48;;;;;;;2.60;1.87;;;18.60;66.80;;;;;;5111133;27;20435;-87
2022/10/19 02:13:17;;;;;;;3.60;2.23;;;18.70;66.20;;;;;;5111386;27;20600;-86
2022/10/19 02:15:50;;;;;;;2.80;2.10;;;18.70;66.40;;;;;;5109060;27;20454;-87
2022/10/19 02:18:21;;;;;;;7.63;1.73;;;18.70;65.60;;;;;;5092854;27;20453;-87
2022/10/19 02:20:49;;;;;;;2.27;2.00;;;18.80;65.10;;;;;;5093168;28;21009;-90
2022/10/19 02:23:20;;;;;;;1.60;1.50;;;18.50;64.60;;;;;;5115715;27;20930;-88
2022/10/19 02:25:48;;;;;;;3.10;1.90;;;18.50;65.20;;;;;;5096767;27;20438;-87
2022/10/19 02:28:15;;;;;;;2.00;1.80;;;18.50;65.30;;;;;;5116097;27;20446;-87
2022/10/19 02:30:42;;;;;;;2.83;1.80;;;18.20;65.70;;;;;;5083059;27;20455;-87
2022/10/19 02:33:12;;;;;;;4.27;2.03;;;18.30;66.30;;;;;;5077226;27;20477;-86
2022/10/19 02:35:40;;;;;;;2.80;1.97;;;18.30;65.70;;;;;;5111099;27;20449;-88
2022/10/19 02:38:09;;;;;;;1.97;1.70;;;18.50;65.60;;;;;;5086355;27;20457;-88
2022/10/19 02:41:00;;;;;;;3.30;2.13;;;18.50;65.30;;;;;;5110234;27;20456;-87
2022/10/19 02:43:31;;;;;;;3.40;2.13;;;18.60;65.30;;;;;;5093639;28;20481;-88
2022/10/19 02:46:04;;;;;;;2.93;2.50;;;18.60;65.10;;;;;;5109681;27;20597;-87
2022/10/19 02:48:35;;;;;;;3.43;3.07;;;18.70;65.10;;;;;;5094384;28;20447;-87
2022/10/19 02:51:02;;;;;;;16.97;3.27;;;18.80;65.00;;;;;;5112072;28;20529;-87
2022/10/19 02:53:29;;;;;;;6.30;3.00;;;18.80;64.90;;;;;;5109305;28;20545;-87
2022/10/19 02:55:56;;;;;;;6.90;2.70;;;18.80;64.80;;;;;;5091677;28;20442;-87
2022/10/19 02:58:23;;;;;;;6.83;2.63;;;18.80;65.00;;;;;;5110247;28;20529;-86
2022/10/19 03:00:50;;;;;;;14.10;3.70;;;18.70;65.30;;;;;;5112486;28;20926;-87
2022/10/19 03:03:17;;;;;;;7.27;3.67;;;18.60;65.50;;;;;;5112072;28;21036;-87
2022/10/19 03:05:46;;;;;;;3.57;2.47;;;18.60;65.70;;;;;;5076092;28;20445;-87
2022/10/19 03:08:13;;;;;;;34.07;3.23;;;18.70;65.80;;;;;;5109695;27;20459;-87
2022/10/19 03:10:40;;;;;;;4.17;3.07;;;18.70;65.40;;;;;;5075215;27;21066;-86
2022/10/19 03:13:07;;;;;;;10.30;3.07;;;18.70;65.20;;;;;;5115162;27;20478;-87
2022/10/19 03:15:34;;;;;;;8.40;2.70;;;18.70;65.50;;;;;;5095123;27;21029;-88
2022/10/19 03:18:01;;;;;;;6.83;3.87;;;18.70;65.50;;;;;;5112935;27;20449;-87
2022/10/19 03:20:28;;;;;;;3.60;2.50;;;18.70;65.60;;;;;;5116867;27;21000;-87
2022/10/19 03:22:56;;;;;;;8.80;3.37;;;18.70;65.40;;;;;;5114305;27;20566;-88
2022/10/19 03:25:23;;;;;;;8.90;3.33;;;18.70;65.30;;;;;;5094278;27;20541;-89
2022/10/19 03:27:53;;;;;;;5.50;2.60;;;18.70;65.20;;;;;;5089141;27;20529;-89
2022/10/19 03:30:20;;;;;;;6.90;3.37;;;18.60;65.90;;;;;;5098951;27;20510;-87
2022/10/19 03:32:47;;;;;;;5.90;3.67;;;18.60;66.80;;;;;;5113780;27;20465;-87
2022/10/19 03:35:14;;;;;;;9.70;4.63;;;18.60;65.90;;;;;;5108811;27;20457;-87
2022/10/19 03:37:41;;;;;;;8.47;4.00;;;18.60;65.60;;;;;;5096196;27;20454;-88
2022/10/19 03:40:10;;;;;;;7.53;4.60;;;18.60;66.50;;;;;;5117144;27;20438;-87
2022/10/19 03:42:37;;;;;;;6.20;4.50;;;18.60;66.10;;;;;;5103206;27;20996;-88
2022/10/19 03:45:05;;;;;;;6.00;4.20;;;18.70;66.00;;;;;;5115245;27;20438;-86
2022/10/19 03:47:32;;;;;;;5.87;3.00;;;18.70;65.50;;;;;;5114847;27;20447;-86
2022/10/19 03:49:59;;;;;;;5.20;3.57;;;18.80;65.70;;;;;;5093600;27;20956;-86
2022/10/19 03:52:26;;;;;;;4.57;3.17;;;18.80;65.40;;;;;;5115825;27;21271;-89
2022/10/19 03:54:53;;;;;;;5.50;3.13;;;18.80;65.20;;;;;;5113012;27;20464;-87
2022/10/19 03:57:22;;;;;;;8.60;3.60;;;18.80;64.90;;;;;;5086552;27;20461;-87
2022/10/19 03:59:49;;;;;;;11.43;6.47;;;18.80;64.70;;;;;;5078361;27;20443;-88
2022/10/19 04:02:16;;;;;;;4.17;3.77;;;18.90;64.70;;;;;;5095276;27;20895;-87
2022/10/19 04:04:43;;;;;;;7.13;5.77;;;18.80;64.60;;;;;;5113831;27;20465;-87
2022/10/19 04:07:10;;;;;;;11.57;7.67;;;18.80;64.70;;;;;;5113892;27;20814;-86
2022/10/19 04:09:37;;;;;;;9.57;6.57;;;18.80;64.60;;;;;;5113327;27;20450;-85
2022/10/19 04:12:04;;;;;;;5.33;4.60;;;18.80;64.80;;;;;;5088056;27;20471;-87
2022/10/19 04:14:33;;;;;;;12.93;4.60;;;18.80;64.80;;;;;;5112324;27;21122;-88
2022/10/19 04:17:00;;;;;;;5.07;3.57;;;18.80;64.60;;;;;;5076988;27;20827;-86
2022/10/19 04:19:27;;;;;;;4.80;3.20;;;18.90;65.00;;;;;;5094581;27;20946;-88
2022/10/19 04:21:54;;;;;;;8.73;5.60;;;18.90;65.80;;;;;;5092674;27;21362;-87
2022/10/19 04:24:21;;;;;;;6.83;5.90;;;18.80;64.90;;;;;;5090707;27;20458;-86
2022/10/19 04:26:51;;;;;;;6.33;5.60;;;18.70;64.70;;;;;;5092497;27;20802;-87
2022/10/19 04:29:19;;;;;;;5.03;4.03;;;18.50;65.30;;;;;;5109455;27;20802;-87
2022/10/19 04:31:49;;;;;;;3.83;3.43;;;18.50;65.60;;;;;;5110310;27;20481;-86
2022/10/19 04:34:16;;;;;;;5.93;3.87;;;18.50;65.60;;;;;;5109940;27;20461;-87
2022/10/19 04:36:43;;;;;;;6.03;4.43;;;18.40;65.70;;;;;;5109885;27;20460;-87
2022/10/19 04:39:10;;;;;;;4.10;3.57;;;18.30;65.40;;;;;;5108769;27;20447;-87
2022/10/19 04:41:38;;;;;;;3.40;2.90;;;18.30;65.90;;;;;;5092578;27;20469;-86
2022/10/19 04:44:06;;;;;;;7.67;4.87;;;18.40;66.00;;;;;;5110074;27;20570;-87
2022/10/19 04:46:33;;;;;;;5.13;3.40;;;18.40;65.60;;;;;;5109413;27;21015;-88
2022/10/19 04:49:03;;;;;;;7.00;3.10;;;18.50;65.40;;;;;;5068284;27;20445;-88
2022/10/19 04:51:30;;;;;;;7.43;3.20;;;18.50;65.40;;;;;;5091685;27;20473;-88
2022/10/19 04:53:57;;;;;;;6.63;4.23;;;18.20;65.80;;;;;;5110384;27;20466;-86
2022/10/19 04:56:26;;;;;;;5.50;4.53;;;18.20;66.30;;;;;;5108106;27;20455;-87
2022/10/19 04:58:56;;;;;;;8.70;5.37;;;18.40;66.20;;;;;;5109411;27;20446;-87
2022/10/19 05:01:24;;;;;;;4.53;3.63;;;18.50;66.10;;;;;;5110230;27;21501;-86
2022/10/19 05:03:56;;;;;;;6.07;4.13;;;18.50;65.60;;;;;;5109371;27;20455;-87
2022/10/19 05:06:25;;;;;;;6.03;3.53;;;18.40;65.90;;;;;;5109053;27;20545;-87
2022/10/19 05:08:52;;;;;;;7.07;4.30;;;18.50;65.80;;;;;;5105725;27;20443;-87
2022/10/19 05:11:20;;;;;;;4.33;3.30;;;18.30;66.10;;;;;;5112034;27;20469;-85
2022/10/19 05:13:48;;;;;;;4.90;4.03;;;18.40;66.00;;;;;;5108799;27;20595;-86
2022/10/19 05:16:18;;;;;;;6.20;4.07;;;18.50;65.90;;;;;;5110221;27;20454;-88
2022/10/19 05:18:48;;;;;;;5.50;4.10;;;18.60;65.80;;;;;;5085412;27;20435;-86
2022/10/19 05:21:16;;;;;;;4.80;4.40;;;18.60;65.60;;;;;;5111494;27;20450;-86
2022/10/19 05:23:44;;;;;;;7.73;4.37;;;18.60;65.70;;;;;;5110439;27;20450;-86
2022/10/19 05:26:13;;;;;;;5.10;3.90;;;18.60;65.30;;;;;;5109865;27;20913;-87
2022/10/19 05:28:40;;;;;;;5.57;2.80;;;18.50;64.80;;;;;;5088790;27;20933;-85
2022/10/19 05:31:09;;;;;;;8.63;4.13;;;18.50;65.60;;;;;;5111627;27;20980;-88
2022/10/19 05:33:37;;;;;;;4.27;3.53;;;18.60;65.40;;;;;;5108463;27;20477;-87
2022/10/19 05:36:16;;;;;;;4.30;3.70;;;18.70;65.60;;;;;;5076400;27;20446;-87
2022/10/19 05:38:46;;;;;;;7.23;3.80;;;18.70;65.30;;;;;;5107449;27;20462;-88
2022/10/19 05:41:13;;;;;;;4.83;3.10;;;18.60;65.10;;;;;;5110567;27;20464;-87
2022/10/19 05:43:46;;;;;;;5.87;3.40;;;18.50;65.40;;;;;;5093035;27;20450;-86
2022/10/19 05:46:17;;;;;;;5.47;3.70;;;18.50;65.30;;;;;;5110957;27;20430;-86
2022/10/19 05:48:45;;;;;;;5.63;4.57;;;18.60;65.10;;;;;;5091640;27;20831;-88
2022/10/19 05:51:14;;;;;;;8.43;4.53;;;18.50;65.10;;;;;;5111024;27;20450;-85
2022/10/19 05:53:41;;;;;;;9.87;6.03;;;18.60;65.50;;;;;;5109996;27;20840;-86
2022/10/19 05:56:14;;;;;;;6.90;4.90;;;18.60;65.20;;;;;;5089135;27;20470;-88
2022/10/19 05:58:41;;;;;;;11.00;5.30;;;18.60;65.00;;;;;;5091105;27;20448;-86
2022/10/19 06:01:08;;;;;;;5.50;4.50;;;18.70;65.10;;;;;;5110409;27;20575;-85
2022/10/19 06:03:35;;;;;;;5.50;4.60;;;18.70;65.10;;;;;;5112590;27;21037;-86
2022/10/19 06:06:03;;;;;;;8.17;6.10;;;18.70;65.20;;;;;;5093984;27;20447;-87
2022/10/19 06:08:30;;;;;;;4.60;4.10;;;18.70;65.30;;;;;;5107943;27;20461;-87
2022/10/19 06:11:05;;;;;;;7.57;4.33;;;18.60;65.20;;;;;;5106472;27;20534;-89
2022/10/19 06:13:34;;;;;;;4.77;4.00;;;18.60;65.10;;;;;;5091491;27;21083;-86
2022/10/19 06:16:02;;;;;;;3.90;3.40;;;18.60;65.30;;;;;;5100746;27;20446;-89
2022/10/19 06:18:29;;;;;;;4.73;4.13;;;18.60;65.40;;;;;;5095529;27;20553;-88
2022/10/19 06:20:56;;;;;;;9.23;3.77;;;18.70;65.80;;;;;;5090499;27;20431;-88
2022/10/19 06:23:23;;;;;;;6.47;4.00;;;18.80;65.80;;;;;;5091027;27;20476;-86
2022/10/19 06:25:50;;;;;;;7.30;4.60;;;18.70;65.40;;;;;;5111031;27;20492;-87
2022/10/19 06:28:17;;;;;;;6.80;4.40;;;18.70;65.40;;;;;;5110052;27;20497;-88
2022/10/19 06:30:45;;;;;;;11.33;3.60;;;18.70;65.50;;;;;;5066668;27;20548;-89
2022/10/19 06:33:13;;;;;;;3.97;3.57;;;18.80;65.20;;;;;;5114080;27;20558;-87
2022/10/19 06:35:41;;;;;;;4.73;4.00;;;18.70;64.70;;;;;;5111920;27;21018;-86
2022/10/19 06:38:08;;;;;;;7.33;3.80;;;18.40;65.60;;;;;;5092057;28;21013;-87
2022/10/19 06:40:35;;;;;;;4.20;3.40;;;18.30;66.60;;;;;;5112430;27;20454;-89
2022/10/19 06:43:02;;;;;;;7.20;5.33;;;18.40;66.20;;;;;;5108278;27;20477;-87
2022/10/19 06:45:30;;;;;;;5.07;4.33;;;18.40;65.90;;;;;;5090382;28;20813;-88
2022/10/19 06:47:59;;;;;;;6.13;5.10;;;18.60;65.80;;;;;;5070819;28;20648;-88
2022/10/19 06:50:26;;;;;;;7.80;4.87;;;18.70;65.80;;;;;;5072329;28;20454;-88
2022/10/19 06:52:53;;;;;;;10.57;4.60;;;18.80;65.70;;;;;;5106632;27;20489;-87
2022/10/19 06:55:20;;;;;;;8.90;5.27;;;18.80;65.60;;;;;;5107056;28;21451;-87
2022/10/19 06:57:48;;;;;;;10.00;5.90;;;18.80;65.60;;;;;;5112395;28;20461;-88
2022/10/19 07:00:15;;;;;;;12.60;5.40;;;18.80;65.60;;;;;;5112817;27;20553;-87
2022/10/19 07:02:42;;;;;;;12.30;6.23;;;18.80;65.20;;;;;;5109595;28;20607;-90
2022/10/19 07:05:11;;;;;;;14.10;6.60;;;18.80;65.70;;;;;;5109776;28;21123;-86
2022/10/19 07:07:38;;;;;;;17.50;7.90;;;18.80;65.60;;;;;;5108231;27;20550;-86
2022/10/19 07:10:06;;;;;;;19.10;8.03;;;18.80;65.50;;;;;;5113675;27;20446;-87
2022/10/19 07:12:33;;;;;;;12.67;6.70;;;18.60;66.00;;;;;;5081009;28;20462;-88
2022/10/19 07:15:00;;;;;;;12.10;6.57;;;18.70;66.10;;;;;;5088996;28;20519;-88
2022/10/19 07:17:27;;;;;;;14.27;7.67;;;18.50;66.00;;;;;;5107835;28;20508;-86
2022/10/19 07:19:54;;;;;;;15.73;9.00;;;18.30;66.80;;;;;;5107959;28;20467;-87
2022/10/19 07:22:23;;;;;;;14.43;7.60;;;18.30;67.50;;;;;;5112401;27;20535;-87
2022/10/19 07:24:51;;;;;;;17.67;8.63;;;18.30;67.40;;;;;;5091508;28;20466;-87
2022/10/19 07:27:18;;;;;;;15.50;8.27;;;18.20;68.00;;;;;;5075024;28;20618;-88
2022/10/19 07:29:45;;;;;;;21.43;8.53;;;18.20;68.20;;;;;;5091827;28;20518;-87
2022/10/19 07:32:12;;;;;;;24.53;10.40;;;18.50;67.90;;;;;;5092755;28;20481;-88
2022/10/19 07:34:39;;;;;;;31.40;17.87;;;18.60;67.10;;;;;;5109921;27;20470;-88
2022/10/19 07:37:06;;;;;;;22.93;11.60;;;18.60;67.10;;;;;;5078500;28;20938;-88
2022/10/19 07:39:34;;;;;;;26.70;13.53;;;18.50;67.10;;;;;;5108195;28;20542;-88
2022/10/19 07:42:01;;;;;;;24.37;11.70;;;18.40;68.30;;;;;;5092331;28;20447;-88
2022/10/19 07:44:28;;;;;;;16.43;10.43;;;18.50;67.20;;;;;;5095702;28;20918;-88
2022/10/19 07:46:56;;;;;;;21.80;8.70;;;18.50;67.20;;;;;;5112193;28;20986;-86
2022/10/19 07:49:23;;;;;;;24.87;8.93;;;18.70;66.90;;;;;;5089258;28;20449;-88
2022/10/19 07:51:52;;;;;;;23.83;18.30;;;18.60;67.10;;;;;;5078504;28;20470;-88
2022/10/19 07:54:20;;;;;;;22.27;10.77;;;18.50;67.50;;;;;;5092455;28;20543;-86
2022/10/19 07:56:48;;;;;;;28.30;13.90;;;18.30;67.90;;;;;;5096239;27;20540;-86
2022/10/19 07:59:16;;;;;;;20.37;10.07;;;18.50;67.80;;;;;;5098187;27;20454;-87
2022/10/19 08:01:43;;;;;;;22.60;10.50;;;18.40;68.00;;;;;;5116353;27;20472;-87
2022/10/19 08:04:10;;;;;;;18.63;9.30;;;18.50;67.40;;;;;;5072488;27;21291;-87
2022/10/19 08:06:37;;;;;;;24.20;10.80;;;18.60;67.30;;;;;;5078326;27;21209;-88
2022/10/19 08:09:05;;;;;;;31.70;11.10;;;18.70;67.30;;;;;;5079768;27;20471;-86
2022/10/19 08:11:34;;;;;;;20.73;10.60;;;18.50;67.90;;;;;;5097496;27;20461;-86
2022/10/19 08:14:03;;;;;;;25.57;9.93;;;18.50;67.50;;;;;;5113211;27;20558;-87
2022/10/19 08:16:32;;;;;;;20.43;10.07;;;18.50;67.80;;;;;;5097308;27;20429;-89
2022/10/19 08:19:01;;;;;;;23.07;13.13;;;18.40;67.90;;;;;;5081723;27;20985;-89
2022/10/19 08:21:30;;;;;;;29.63;13.43;;;18.30;68.20;;;;;;5080841;27;20438;-87
2022/10/19 08:23:57;;;;;;;19.70;12.40;;;18.40;68.20;;;;;;5114551;27;20435;-86
2022/10/19 08:26:25;;;;;;;23.70;10.33;;;18.40;68.10;;;;;;5096587;27;20826;-88
2022/10/19 08:28:52;;;;;;;21.50;9.60;;;18.40;68.30;;;;;;5111440;27;20447;-88
2022/10/19 08:31:22;;;;;;;31.90;14.40;;;18.00;68.70;;;;;;5114894;27;20445;-88
2022/10/19 08:33:50;;;;;;;20.77;11.30;;;18.20;68.70;;;;;;5113167;27;21073;-86
2022/10/19 08:36:19;;;;;;;19.20;8.63;;;18.30;68.30;;;;;;5113234;27;21149;-88
2022/10/19 08:38:47;;;;;;;15.10;8.43;;;18.50;67.90;;;;;;5110580;27;21189;-86
2022/10/19 08:41:23;;;;;;;15.33;8.90;;;18.40;67.20;;;;;;5112893;27;20458;-88
2022/10/19 08:44:06;;;;;;;18.17;9.50;;;18.20;68.10;;;;;;5102069;27;20450;-86
2022/10/19 08:46:44;;;;;;;19.10;8.40;;;18.30;68.30;;;;;;5113307;27;20438;-87
2022/10/19 08:49:15;;;;;;;19.20;8.30;;;18.40;68.10;;;;;;5110746;27;20439;-86
2022/10/19 08:51:45;;;;;;;21.13;9.63;;;18.30;67.90;;;;;;5114305;27;20484;-87
2022/10/19 08:54:17;;;;;;;19.10;9.80;;;18.50;68.00;;;;;;5114567;27;20560;-88
2022/10/19 08:57:02;;;;;;;24.43;10.13;;;18.60;67.30;;;;;;5094461;27;20446;-87
2022/10/19 08:59:39;;;;;;;22.63;10.20;;;18.50;67.10;;;;;;5112777;27;20475;-87
2022/10/19 09:02:16;;;;;;;21.80;9.97;;;18.40;67.60;;;;;;5114197;27;20474;-87
2022/10/19 09:04:48;;;;;;;22.40;10.70;;;18.20;67.80;;;;;;5095380;27;20467;-87
2022/10/19 09:07:25;;;;;;;20.40;9.77;;;18.10;68.20;;;;;;5113333;27;21381;-87
2022/10/19 09:09:57;;;;;;;20.63;8.73;;;18.20;68.20;;;;;;5090612;28;20435;-87
2022/10/19 09:12:35;;;;;;;23.57;11.50;;;18.10;68.30;;;;;;5116317;27;20541;-87
2022/10/19 09:15:04;;;;;;;18.07;8.50;;;18.10;68.40;;;;;;5111291;27;20481;-85
2022/10/19 09:17:33;;;;;;;24.27;8.60;;;18.00;68.60;;;;;;5111144;27;20567;-87
2022/10/19 09:20:13;;;;;;;18.50;10.27;;;18.10;68.80;;;;;;5111357;27;20449;-87
2022/10/19 09:22:43;;;;;;;17.00;9.27;;;18.20;68.10;;;;;;5073719;27;20465;-88
2022/10/19 09:25:17;;;;;;;16.80;8.83;;;18.20;67.50;;;;;;5102903;27;20455;-87
2022/10/19 09:27:47;;;;;;;19.13;9.57;;;18.20;67.50;;;;;;5097300;27;20525;-87
2022/10/19 09:30:18;;;;;;;21.40;10.63;;;18.00;68.30;;;;;;5068557;27;20545;-84
2022/10/19 09:32:48;;;;;;;22.97;10.67;;;18.00;68.10;;;;;;5100209;27;20466;-87
2022/10/19 09:35:24;;;;;;;18.40;9.77;;;18.10;68.40;;;;;;5085514;28;20454;-86
2022/10/19 09:37:51;;;;;;;23.87;11.53;;;18.10;68.40;;;;;;5100987;27;20441;-86
2022/10/19 09:40:22;;;;;;;25.20;11.10;;;18.10;67.80;;;;;;5090482;28;20530;-87
2022/10/19 09:42:55;;;;;;;19.90;11.17;;;18.00;68.40;;;;;;5082313;27;20477;-86
2022/10/19 09:45:34;;;;;;;19.57;10.87;;;18.10;68.50;;;;;;5083782;27;20442;-88
2022/10/19 09:48:14;;;;;;;22.27;9.90;;;18.30;67.90;;;;;;5090732;27;20442;-86
2022/10/19 09:50:44;;;;;;;23.60;11.40;;;18.10;67.60;;;;;;5105960;27;20446;-87
2022/10/19 09:53:19;;;;;;;20.40;9.57;;;18.10;68.00;;;;;;5120184;27;20478;-88
2022/10/19 09:55:52;;;;;;;20.80;10.17;;;18.10;67.80;;;;;;5105957;27;20560;-87
2022/10/19 09:58:20;;;;;;;21.83;11.37;;;18.00;68.20;;;;;;5102620;28;20545;-86
2022/10/19 10:00:50;;;;;;;23.00;10.97;;;17.90;68.30;;;;;;5097736;28;20447;-87
2022/10/19 10:03:29;;;;;;;20.77;10.67;;;17.90;68.70;;;;;;5088116;28;20462;-84
2022/10/19 10:05:58;;;;;;;19.80;10.50;;;17.80;68.20;;;;;;5089670;27;20450;-87
2022/10/19 10:08:27;;;;;;;20.87;10.67;;;17.70;68.40;;;;;;5080095;27;20534;-86
2022/10/19 10:11:07;;;;;;;22.13;11.60;;;17.80;68.40;;;;;;5072128;28;20486;-86
2022/10/19 10:13:38;;;;;;;22.20;10.93;;;17.80;68.10;;;;;;5074029;27;20498;-86
2022/10/19 10:16:08;;;;;;;20.90;11.83;;;17.60;68.70;;;;;;5093118;27;20457;-86
2022/10/19 10:18:44;;;;;;;24.60;12.27;;;17.60;69.10;;;;;;5119590;27;20454;-86
2022/10/19 10:21:14;;;;;;;26.10;12.27;;;17.80;68.70;;;;;;5115080;27;20951;-86
2022/10/19 10:23:41;;;;;;;20.87;11.20;;;17.80;68.50;;;;;;5086615;27;20469;-85
2022/10/19 10:26:18;;;;;;;20.53;10.97;;;17.90;68.40;;;;;;5090034;27;20439;-88
2022/10/19 10:28:50;;;;;;;19.33;10.87;;;17.90;69.30;;;;;;5088752;27;20465;-86
2022/10/19 10:31:23;;;;;;;24.13;12.43;;;18.00;68.00;;;;;;5121063;27;20454;-87
2022/10/19 10:34:00;;;;;;;24.77;13.13;;;18.10;67.60;;;;;;5094423;28;20447;-91
2022/10/19 10:36:29;;;;;;;23.60;12.33;;;18.20;67.20;;;;;;5091268;27;21232;-87
2022/10/19 10:39:02;;;;;;;28.67;14.17;;;18.00;67.50;;;;;;5102737;28;20473;-86
2022/10/19 10:41:31;;;;;;;23.83;13.27;;;18.00;68.00;;;;;;5114239;27;20480;-88
2022/10/19 10:44:02;;;;;;;27.30;12.47;;;18.00;68.30;;;;;;5103833;27;20447;-86
2022/10/19 10:46:36;;;;;;;24.60;12.80;;;18.10;68.40;;;;;;5103798;28;21001;-87
2022/10/19 10:49:07;;;;;;;23.07;11.60;;;18.00;68.10;;;;;;5134624;27;20478;-87
2022/10/19 10:51:39;;;;;;;22.40;12.00;;;17.90;69.00;;;;;;5113260;28;21217;-86
2022/10/19 10:54:17;;;;;;;24.40;12.33;;;17.90;69.10;;;;;;5101171;28;20867;-87
2022/10/19 10:56:57;;;;;;;18.30;10.00;;;18.00;68.80;;;;;;5118002;28;20451;-87
2022/10/19 10:59:29;;;;;;;18.63;9.63;;;18.10;69.10;;;;;;5087353;28;20507;-88
2022/10/19 11:02:02;;;;;;;14.10;8.83;;;18.10;69.30;;;;;;5104605;28;20495;-87
2022/10/19 11:04:35;;;;;;;17.13;8.90;;;18.10;69.00;;;;;;5087948;28;20435;-87
2022/10/19 11:07:19;;;;;;;18.47;8.77;;;18.20;69.30;;;;;;5106247;28;20454;-89
2022/10/19 11:09:51;;;;;;;14.63;8.10;;;18.30;68.30;;;;;;5101226;28;20470;-89
2022/10/19 11:12:28;;;;;;;12.00;8.20;;;18.30;67.80;;;;;;5100882;28;20505;-86
2022/10/19 11:15:02;;;;;;;32.37;18.90;;;18.30;67.80;;;;;;5114189;28;20461;-86
2022/10/19 11:17:33;;;;;;;22.30;13.20;;;18.50;67.70;;;;;;5115297;28;20490;-86
2022/10/19 11:20:02;;;;;;;16.47;10.03;;;18.60;66.80;;;;;;5106771;28;20538;-89
2022/10/19 11:22:35;;;;;;;16.10;10.10;;;18.70;66.90;;;;;;5084208;28;20472;-88
2022/10/19 11:25:22;;;;;;;15.83;9.93;;;18.50;66.60;;;;;;5088671;28;20450;-89
2022/10/19 11:27:56;;;;;;;16.43;9.00;;;18.60;66.90;;;;;;5087200;28;20447;-89
2022/10/19 11:30:25;;;;;;;13.07;9.60;;;18.80;67.00;;;;;;5093765;28;20896;-88
2022/10/19 11:32:58;;;;;;;18.53;8.67;;;18.90;66.30;;;;;;5097106;27;20473;-87
2022/10/19 11:35:40;;;;;;;20.90;12.90;;;18.90;66.20;;;;;;5089879;27;20560;-88
2022/10/19 11:38:25;;;;;;;19.37;10.43;;;19.00;65.60;;;;;;5107917;27;20963;-87
2022/10/19 11:41:01;;;;;;;20.43;13.33;;;19.10;65.60;;;;;;5093649;27;20465;-87
2022/10/19 11:43:36;;;;;;;16.30;9.77;;;19.20;65.30;;;;;;5120053;27;21271;-86
2022/10/19 11:46:12;;;;;;;17.30;12.47;;;19.10;65.60;;;;;;5072110;27;20498;-86
2022/10/19 11:48:50;;;;;;;13.67;8.60;;;19.20;65.40;;;;;;5091478;27;20443;-87
2022/10/19 11:51:27;;;;;;;17.40;11.30;;;19.20;64.50;;;;;;5085228;27;20458;-89
2022/10/19 11:54:06;;;;;;;22.30;10.93;;;19.10;64.60;;;;;;5088881;27;20961;-87
2022/10/19 11:56:41;;;;;;;18.77;11.00;;;19.20;64.60;;;;;;5100932;27;20456;-87
2022/10/19 11:59:18;;;;;;;18.90;10.70;;;19.20;64.90;;;;;;5082361;27;20437;-87
2022/10/19 12:01:55;;;;;;;15.50;9.10;;;18.90;64.40;;;;;;5063649;27;20624;-88
2022/10/19 12:04:45;;;;;;;22.57;9.00;;;18.90;65.20;;;;;;5083576;27;20449;-87
2022/10/19 12:07:42;;;;;;;16.70;10.07;;;18.90;65.50;;;;;;5102650;27;20785;-87
2022/10/19 12:10:18;;;;;;;19.97;9.70;;;18.90;65.30;;;;;;5089739;27;20453;-88
2022/10/19 12:12:49;;;;;;;21.30;10.90;;;18.80;65.30;;;;;;5080896;27;21303;-88
2022/10/19 12:15:22;;;;;;;14.63;9.23;;;18.60;65.80;;;;;;5087271;27;20470;-86
2022/10/19 12:17:52;;;;;;;18.77;10.37;;;18.40;66.30;;;;;;5085378;27;20442;-86
2022/10/19 12:20:25;;;;;;;19.70;11.43;;;18.50;66.50;;;;;;5112746;27;20447;-89
2022/10/19 12:22:54;;;;;;;19.00;10.87;;;18.70;66.30;;;;;;5073691;27;20462;-89
2022/10/19 12:25:22;;;;;;;19.47;10.70;;;18.60;67.00;;;;;;5103227;27;20446;-87
2022/10/19 12:27:50;;;;;;;21.37;11.70;;;18.70;66.60;;;;;;5086399;27;20456;-88
2022/10/19 12:30:20;;;;;;;30.40;19.27;;;18.80;65.70;;;;;;5080554;27;20938;-87
2022/10/19 12:32:56;;;;;;;40.10;19.50;;;18.90;65.40;;;;;;5087868;27;20462;-88
2022/10/19 12:35:39;;;;;;;37.37;22.67;;;19.00;65.50;;;;;;5105021;27;21131;-89
2022/10/19 12:38:16;;;;;;;20.03;13.80;;;19.00;65.50;;;;;;5073058;27;20466;-89
2022/10/19 12:40:49;;;;;;;15.93;11.40;;;18.80;65.20;;;;;;5075631;27;20468;-89
2022/10/19 12:43:25;;;;;;;16.50;10.40;;;18.90;65.60;;;;;;5091609;27;20477;-88
2022/10/19 12:46:07;;;;;;;15.83;9.40;;;19.10;65.60;;;;;;5086732;27;20431;-90
2022/10/19 12:48:35;;;;;;;15.70;11.17;;;19.20;65.20;;;;;;5093445;27;20511;-88
2022/10/19 12:51:10;;;;;;;15.93;10.70;;;19.20;64.40;;;;;;5117286;27;20462;-88
2022/10/19 12:53:41;;;;;;;16.90;11.90;;;19.00;64.40;;;;;;5097217;27;20492;-88
2022/10/19 12:56:15;;;;;;;19.73;13.00;;;19.00;65.00;;;;;;5096997;27;20549;-87